createdAt,value
2023-05-19T00:00:15.376Z,102061.75
2023-05-19T00:02:44.117Z,102055.44
2023-05-19T00:05:18.450Z,102061.75
2023-05-19T00:07:47.895Z,102067.00
2023-05-19T00:10:16.840Z,102067.56
2023-05-19T00:12:44.792Z,102059.38
2023-05-19T00:15:16.372Z,102067.00
2023-05-19T00:17:43.571Z,102068.00
2023-05-19T00:20:12.120Z,102066.84
2023-05-19T00:22:39.332Z,102062.44
2023-05-19T00:25:07.414Z,102064.22
2023-05-19T00:27:34.571Z,102066.22
2023-05-19T00:30:01.805Z,102067.75
2023-05-19T00:32:28.960Z,102062.25
2023-05-19T00:34:56.132Z,102066.09
2023-05-19T00:37:23.385Z,102069.09
2023-05-19T00:39:50.676Z,102059.22
2023-05-19T00:42:17.945Z,102061.06
2023-05-19T00:44:45.046Z,102062.84
2023-05-19T00:47:12.183Z,102065.63
2023-05-19T00:49:39.329Z,102060.38
2023-05-19T00:52:07.545Z,102054.19
2023-05-19T00:54:36.018Z,102064.59
2023-05-19T00:57:04.277Z,102060.91
2023-05-19T00:59:33.591Z,102065.16
2023-05-19T01:02:02.807Z,102066.41
2023-05-19T01:07:02.084Z,102064.09
2023-05-19T01:09:30.637Z,102070.31
2023-05-19T01:11:57.851Z,102073.06
2023-05-19T01:14:25.151Z,102064.22
2023-05-19T01:17:10.007Z,102067.28
2023-05-19T01:20:06.653Z,102058.50
2023-05-19T01:23:14.975Z,102050.94
2023-05-19T01:26:04.619Z,102054.22
2023-05-19T01:29:31.612Z,102052.78
2023-05-19T01:32:01.540Z,102056.03
2023-05-19T01:34:31.441Z,102053.75
2023-05-19T01:37:00.681Z,102067.13
2023-05-19T01:39:29.427Z,102067.19
2023-05-19T01:41:58.019Z,102066.13
2023-05-19T01:44:25.346Z,102066.34
2023-05-19T01:46:52.953Z,102064.34
2023-05-19T01:49:20.389Z,102068.31
2023-05-19T01:51:49.324Z,102061.59
2023-05-19T01:54:16.522Z,102067.88
2023-05-19T01:57:23.415Z,102068.13
2023-05-19T02:00:38.795Z,102077.41
2023-05-19T02:03:38.552Z,102068.81
2023-05-19T02:06:40.148Z,102073.38
2023-05-19T02:09:37.136Z,102074.81
2023-05-19T02:12:25.924Z,102071.91
2023-05-19T02:15:06.893Z,102066.03
2023-05-19T02:17:41.581Z,102063.91
2023-05-19T02:20:11.711Z,102068.66
2023-05-19T02:22:38.944Z,102074.03
2023-05-19T02:25:07.091Z,102068.34
2023-05-19T02:27:39.229Z,102066.63
2023-05-19T02:30:09.329Z,102068.22
2023-05-19T02:32:36.631Z,102069.97
2023-05-19T02:35:04.875Z,102074.28
2023-05-19T02:37:32.494Z,102068.44
2023-05-19T02:39:59.845Z,102071.88
2023-05-19T02:42:27.002Z,102064.53
2023-05-19T02:44:55.441Z,102062.66
2023-05-19T02:47:22.770Z,102054.81
2023-05-19T02:49:50.143Z,102057.13
2023-05-19T02:52:17.355Z,102058.06
2023-05-19T02:54:44.706Z,102059.34
2023-05-19T02:57:11.863Z,102056.06
2023-05-19T02:59:39.039Z,102055.75
2023-05-19T03:02:06.286Z,102048.41
2023-05-19T03:04:41.406Z,102049.16
2023-05-19T03:07:10.397Z,102053.59
2023-05-19T03:09:40.644Z,102051.53
2023-05-19T03:12:08.106Z,102046.03
2023-05-19T03:14:37.702Z,102051.00
2023-05-19T03:17:07.803Z,102040.38
2023-05-19T03:19:35.140Z,102048.38
2023-05-19T03:22:02.356Z,102043.75
2023-05-19T03:24:29.487Z,102048.34
2023-05-19T03:26:58.966Z,102052.97
2023-05-19T03:29:26.175Z,102053.66
2023-05-19T03:31:54.315Z,102052.53
2023-05-19T03:34:22.402Z,102051.72
2023-05-19T03:36:50.380Z,102049.25
2023-05-19T03:39:18.030Z,102051.69
2023-05-19T03:41:45.393Z,102046.97
2023-05-19T03:44:12.489Z,102043.28
2023-05-19T03:46:39.677Z,102054.13
2023-05-19T03:49:06.799Z,102043.03
2023-05-19T03:51:34.997Z,102053.13
2023-05-19T03:54:02.519Z,102046.97
2023-05-19T03:56:29.950Z,102049.91
2023-05-19T03:58:57.086Z,102050.53
2023-05-19T04:01:24.264Z,102055.25
2023-05-19T04:03:51.375Z,102062.03
2023-05-19T04:06:19.972Z,102055.69
2023-05-19T04:08:48.339Z,102050.19
2023-05-19T04:11:15.710Z,102050.75
2023-05-19T04:13:44.042Z,102050.94
2023-05-19T04:16:12.357Z,102052.69
2023-05-19T04:18:39.559Z,102051.19
2023-05-19T04:21:08.610Z,102051.44
2023-05-19T04:23:35.965Z,102059.00
2023-05-19T04:26:03.720Z,102049.94
2023-05-19T04:28:31.258Z,102061.13
2023-05-19T04:30:58.534Z,102054.84
2023-05-19T04:33:25.801Z,102062.97
2023-05-19T04:35:53.038Z,102061.38
2023-05-19T04:38:22.211Z,102058.22
2023-05-19T04:40:50.560Z,102067.31
2023-05-19T04:43:19.217Z,102057.88
2023-05-19T04:45:51.376Z,102066.00
2023-05-19T04:48:19.037Z,102058.81
2023-05-19T04:50:48.734Z,102065.28
2023-05-19T04:53:16.401Z,102063.84
2023-05-19T04:55:45.297Z,102064.88
2023-05-19T04:58:12.486Z,102065.69
2023-05-19T05:00:39.611Z,102070.41
2023-05-19T05:03:07.590Z,102064.63
2023-05-19T05:05:35.389Z,102065.94
2023-05-19T05:08:03.166Z,102066.94
2023-05-19T05:10:30.476Z,102065.75
2023-05-19T05:12:58.702Z,102060.09
2023-05-19T05:15:28.819Z,102068.72
2023-05-19T05:17:56.808Z,102072.25
2023-05-19T05:20:24.624Z,102061.16
2023-05-19T05:22:52.463Z,102068.38
2023-05-19T05:25:21.100Z,102060.94
2023-05-19T05:27:48.243Z,102063.94
2023-05-19T05:30:15.428Z,102061.00
2023-05-19T05:32:42.671Z,102061.63
2023-05-19T05:35:10.619Z,102061.25
2023-05-19T05:37:37.817Z,102062.38
2023-05-19T05:40:07.050Z,102061.72
2023-05-19T05:42:34.198Z,102065.38
2023-05-19T05:45:01.805Z,102065.81
2023-05-19T05:47:29.405Z,102070.38
2023-05-19T05:49:57.057Z,102064.81
2023-05-19T05:52:30.885Z,102063.28
2023-05-19T05:54:58.747Z,102068.38
2023-05-19T05:57:26.986Z,102065.63
2023-05-19T05:59:54.118Z,102071.88
2023-05-19T06:02:21.933Z,102072.50
2023-05-19T06:04:49.203Z,102076.50
2023-05-19T06:07:16.349Z,102076.09
2023-05-19T06:09:43.619Z,102067.38
2023-05-19T06:12:11.274Z,102066.78
2023-05-19T06:14:38.374Z,102062.97
2023-05-19T06:17:05.521Z,102061.47
2023-05-19T06:19:34.981Z,102065.56
2023-05-19T06:22:02.082Z,102072.09
2023-05-19T06:24:32.721Z,102061.53
2023-05-19T06:26:59.843Z,102066.53
2023-05-19T06:29:27.112Z,102072.81
2023-05-19T06:31:54.279Z,102066.50
2023-05-19T06:34:21.657Z,102068.75
2023-05-19T06:36:49.056Z,102065.84
2023-05-19T06:39:16.234Z,102075.69
2023-05-19T06:41:43.442Z,102059.00
2023-05-19T06:44:10.921Z,102064.03
2023-05-19T06:46:38.262Z,102065.25
2023-05-19T06:49:05.440Z,102066.97
2023-05-19T06:51:35.878Z,102062.88
2023-05-19T06:54:03.374Z,102062.66
2023-05-19T06:56:30.756Z,102060.34
2023-05-19T06:59:04.454Z,102062.81
2023-05-19T07:01:31.859Z,102062.69
2023-05-19T07:03:59.362Z,102068.03
2023-05-19T07:06:34.957Z,102072.97
2023-05-19T07:09:05.472Z,102067.53
2023-05-19T07:11:32.991Z,102064.88
2023-05-19T07:14:00.145Z,102063.09
2023-05-19T07:16:36.419Z,102066.91
2023-05-19T07:19:03.918Z,102061.25
2023-05-19T07:21:31.674Z,102072.97
2023-05-19T07:23:58.865Z,102061.56
2023-05-19T07:26:26.737Z,102068.03
2023-05-19T07:28:55.001Z,102060.75
2023-05-19T07:31:22.501Z,102059.28
2023-05-19T07:33:51.083Z,102066.84
2023-05-19T07:36:25.283Z,102060.91
2023-05-19T07:38:59.269Z,102056.59
2023-05-19T07:41:34.275Z,102057.44
2023-05-19T07:44:07.512Z,102056.72
2023-05-19T07:46:44.996Z,102054.78
2023-05-19T07:49:12.874Z,102058.19
2023-05-19T07:51:42.883Z,102051.03
2023-05-19T07:54:13.886Z,102050.53
2023-05-19T07:56:41.379Z,102050.47
2023-05-19T07:59:09.135Z,102046.00
2023-05-19T08:01:36.449Z,102037.91
2023-05-19T08:04:03.823Z,102041.34
2023-05-19T08:06:31.787Z,102039.25
2023-05-19T08:09:05.798Z,102053.47
2023-05-19T08:11:37.142Z,102047.19
2023-05-19T08:14:05.056Z,102042.19
2023-05-19T08:16:32.779Z,102037.47
2023-05-19T08:19:02.518Z,102040.72
2023-05-19T08:21:30.278Z,102042.19
2023-05-19T08:23:57.665Z,102051.94
2023-05-19T08:26:25.172Z,102043.88
2023-05-19T08:28:55.998Z,102049.69
2023-05-19T08:31:31.470Z,102050.28
2023-05-19T08:33:58.643Z,102056.00
2023-05-19T08:36:25.832Z,102056.31
2023-05-19T08:38:53.285Z,102057.41
2023-05-19T08:41:21.679Z,102052.59
2023-05-19T08:43:50.131Z,102051.91
2023-05-19T08:46:18.543Z,102056.44
2023-05-19T08:48:48.889Z,102043.25
2023-05-19T08:51:53.830Z,102044.72
2023-05-19T08:54:40.337Z,102042.69
2023-05-19T08:57:09.988Z,102036.91
2023-05-19T08:59:37.569Z,102030.41
2023-05-19T09:02:06.852Z,102037.66
2023-05-19T09:04:36.752Z,102031.56
2023-05-19T09:07:04.726Z,102034.47
2023-05-19T09:09:35.234Z,102023.16
2023-05-19T09:12:02.601Z,102020.13
2023-05-19T09:14:31.079Z,102016.03
2023-05-19T09:17:17.484Z,102019.00
2023-05-19T09:19:48.089Z,102013.34
2023-05-19T09:22:27.038Z,102008.81
2023-05-19T09:24:54.267Z,102011.72
2023-05-19T09:27:27.993Z,102001.47
2023-05-19T09:29:55.212Z,102010.13
2023-05-19T09:32:27.133Z,101994.66
2023-05-19T09:34:55.152Z,101999.56
2023-05-19T09:37:29.019Z,101991.03
2023-05-19T09:39:56.551Z,101995.22
2023-05-19T09:42:29.860Z,102001.19
2023-05-19T09:45:04.858Z,102008.88
2023-05-19T09:47:41.403Z,102005.03
2023-05-19T09:50:12.590Z,102004.22
2023-05-19T09:52:47.519Z,101999.28
2023-05-19T09:55:16.512Z,102001.56
2023-05-19T09:57:46.167Z,102007.38
2023-05-19T10:00:17.276Z,101994.19
2023-05-19T10:02:48.141Z,101985.16
2023-05-19T10:05:20.482Z,101991.06
2023-05-19T10:07:54.428Z,101985.16
2023-05-19T10:10:23.043Z,101978.31
2023-05-19T10:12:53.630Z,101979.72
2023-05-19T10:15:29.894Z,101980.06
2023-05-19T10:17:57.866Z,101974.44
2023-05-19T10:20:26.498Z,101970.88
2023-05-19T10:22:59.566Z,101972.53
2023-05-19T10:25:26.812Z,101972.34
2023-05-19T10:28:01.819Z,101978.09
2023-05-19T10:34:32.634Z,101960.75
2023-05-19T10:37:22.074Z,101974.59
2023-05-19T10:39:52.963Z,101964.44
2023-05-19T10:42:53.851Z,101971.66
2023-05-19T10:45:27.113Z,101970.84
2023-05-19T10:47:55.246Z,101965.47
2023-05-19T10:50:23.658Z,101965.69
2023-05-19T10:52:57.836Z,101965.78
2023-05-19T10:56:03.415Z,101963.75
2023-05-19T10:59:00.487Z,101960.19
2023-05-19T11:01:37.235Z,101954.56
2023-05-19T11:04:15.946Z,101951.72
2023-05-19T11:06:52.106Z,101947.97
2023-05-19T11:09:22.464Z,101951.88
2023-05-19T11:11:54.660Z,101949.91
2023-05-19T11:14:28.035Z,101944.25
2023-05-19T11:17:01.850Z,101945.72
2023-05-19T11:19:35.490Z,101954.31
2023-05-19T11:22:13.932Z,101936.06
2023-05-19T11:24:47.869Z,101932.47
2023-05-19T11:27:37.476Z,101939.91
2023-05-19T11:30:19.954Z,101938.56
2023-05-19T11:32:48.827Z,101939.63
2023-05-19T11:35:19.041Z,101933.72
2023-05-19T11:37:52.342Z,101941.00
2023-05-19T11:40:23.161Z,101938.25
2023-05-19T11:42:50.433Z,101929.72
2023-05-19T11:45:17.788Z,101933.31
2023-05-19T11:48:01.267Z,101927.28
2023-05-19T11:50:31.167Z,101938.63
2023-05-19T11:53:01.413Z,101930.66
2023-05-19T11:55:30.491Z,101932.97
2023-05-19T11:58:05.635Z,101933.81
2023-05-19T12:00:40.735Z,101933.34
2023-05-19T12:03:09.833Z,101922.13
2023-05-19T12:05:47.148Z,101922.97
2023-05-19T12:08:17.423Z,101919.94
2023-05-19T12:10:47.712Z,101920.09
2023-05-19T12:13:19.258Z,101920.00
2023-05-19T12:15:46.436Z,101923.41
2023-05-19T12:18:13.598Z,101922.44
2023-05-19T12:20:41.037Z,101927.19
2023-05-19T12:23:09.006Z,101926.91
2023-05-19T12:25:36.395Z,101929.44
2023-05-19T12:28:04.503Z,101924.66
2023-05-19T12:30:35.668Z,101925.94
2023-05-19T12:33:06.560Z,101933.53
2023-05-19T12:35:37.399Z,101932.50
2023-05-19T12:38:06.531Z,101931.84
2023-05-19T12:40:36.140Z,101921.13
2023-05-19T12:43:06.893Z,101923.44
2023-05-19T12:45:38.732Z,101914.13
2023-05-19T12:48:12.206Z,101915.59
2023-05-19T12:50:39.747Z,101899.81
2023-05-19T12:53:14.777Z,101904.47
2023-05-19T12:55:45.630Z,101905.16
2023-05-19T12:58:16.549Z,101902.19
2023-05-19T13:00:47.601Z,101905.88
2023-05-19T13:03:24.251Z,101902.50
2023-05-19T13:05:54.089Z,101903.13
2023-05-19T13:08:23.984Z,101896.91
2023-05-19T13:10:51.963Z,101905.31
2023-05-19T13:13:19.539Z,101906.50
2023-05-19T13:15:52.282Z,101908.97
2023-05-19T13:18:19.678Z,101913.16
2023-05-19T13:20:51.432Z,101906.59
2023-05-19T13:23:19.250Z,101901.44
2023-05-19T13:25:46.997Z,101896.88
2023-05-19T13:28:14.217Z,101899.03
2023-05-19T13:30:43.844Z,101894.59
2023-05-19T13:33:11.902Z,101892.50
2023-05-19T13:35:39.767Z,101888.25
2023-05-19T13:38:09.824Z,101889.22
2023-05-19T13:40:38.528Z,101888.53
2023-05-19T13:43:09.059Z,101891.75
2023-05-19T13:45:36.618Z,101898.50
2023-05-19T13:48:04.243Z,101896.50
2023-05-19T13:50:31.412Z,101898.44
2023-05-19T13:52:58.588Z,101896.66
2023-05-19T13:55:27.336Z,101899.75
2023-05-19T13:57:57.546Z,101904.06
2023-05-19T14:00:24.842Z,101901.13
2023-05-19T14:02:52.740Z,101903.97
2023-05-19T14:05:20.147Z,101895.81
2023-05-19T14:07:47.274Z,101898.75
2023-05-19T14:10:14.438Z,101890.97
2023-05-19T14:13:02.431Z,101901.13
2023-05-19T14:15:46.350Z,101900.91
2023-05-19T14:18:13.668Z,101901.84
2023-05-19T14:20:43.854Z,101895.22
2023-05-19T14:23:10.995Z,101892.88
2023-05-19T14:25:38.164Z,101896.06
2023-05-19T14:28:10.969Z,101902.22
2023-05-19T14:30:41.567Z,101901.84
2023-05-19T14:33:09.299Z,101896.16
2023-05-19T14:35:36.625Z,101897.06
2023-05-19T14:38:03.825Z,101899.91
2023-05-19T14:40:31.200Z,101905.97
2023-05-19T14:42:58.762Z,101911.66
2023-05-19T14:45:28.824Z,101910.63
2023-05-19T14:47:56.061Z,101916.41
2023-05-19T14:50:23.237Z,101923.47
2023-05-19T14:52:50.493Z,101913.31
2023-05-19T14:55:17.681Z,101917.16
2023-05-19T14:57:45.048Z,101913.38
2023-05-19T15:00:13.162Z,101910.69
2023-05-19T15:02:40.413Z,101908.63
2023-05-19T15:05:08.272Z,101903.91
2023-05-19T15:07:37.896Z,101911.75
2023-05-19T15:10:07.841Z,101903.88
2023-05-19T15:12:35.471Z,101906.94
2023-05-19T15:15:03.089Z,101912.91
2023-05-19T15:17:30.906Z,101897.84
2023-05-19T15:19:58.084Z,101913.31
2023-05-19T15:22:25.189Z,101898.72
2023-05-19T15:24:52.250Z,101910.66
2023-05-19T15:27:20.759Z,101902.13
2023-05-19T15:29:47.931Z,101901.25
2023-05-19T15:32:15.043Z,101905.97
2023-05-19T15:34:42.167Z,101894.84
2023-05-19T15:37:09.291Z,101895.63
2023-05-19T15:39:36.360Z,101899.19
2023-05-19T15:42:03.493Z,101888.28
2023-05-19T15:44:30.716Z,101895.28
2023-05-19T15:46:57.833Z,101886.31
2023-05-19T15:49:26.368Z,101896.97
2023-05-19T15:51:53.470Z,101895.13
2023-05-19T15:54:20.709Z,101893.63
2023-05-19T15:56:47.847Z,101889.25
2023-05-19T15:59:14.954Z,101889.69
2023-05-19T16:01:42.274Z,101899.63
2023-05-19T16:04:09.596Z,101898.16
2023-05-19T16:06:36.741Z,101902.63
2023-05-19T16:09:03.981Z,101891.53
2023-05-19T16:11:31.080Z,101881.59
2023-05-19T16:14:01.091Z,101892.00
2023-05-19T16:16:28.448Z,101882.13
2023-05-19T16:18:55.609Z,101883.97
2023-05-19T16:21:23.520Z,101887.28
2023-05-19T16:23:50.721Z,101883.53
2023-05-19T16:26:17.833Z,101883.63
2023-05-19T16:28:44.942Z,101886.56
2023-05-19T16:31:12.235Z,101873.56
2023-05-19T16:33:39.975Z,101870.97
2023-05-19T16:36:07.201Z,101878.22
2023-05-19T16:38:34.378Z,101865.88
2023-05-19T16:41:03.612Z,101866.47
2023-05-19T16:43:33.372Z,101865.16
2023-05-19T16:46:03.259Z,101875.41
2023-05-19T16:48:30.644Z,101877.97
2023-05-19T16:50:57.827Z,101866.34
2023-05-19T16:53:25.049Z,101877.53
2023-05-19T16:55:52.244Z,101885.41
2023-05-19T16:58:19.314Z,101878.88
2023-05-19T17:00:52.590Z,101889.66
2023-05-19T17:03:20.206Z,101882.88
2023-05-19T17:05:47.469Z,101880.72
2023-05-19T17:08:14.652Z,101878.38
2023-05-19T17:10:41.767Z,101881.31
2023-05-19T17:13:08.912Z,101883.84
2023-05-19T17:15:37.443Z,101881.09
2023-05-19T17:18:05.614Z,101884.53
2023-05-19T17:20:32.970Z,101877.97
2023-05-19T17:23:00.484Z,101872.69
2023-05-19T17:25:36.680Z,101888.81
2023-05-19T17:28:04.024Z,101877.38
2023-05-19T17:30:31.712Z,101882.81
2023-05-19T17:32:59.412Z,101881.97
2023-05-19T17:35:29.191Z,101886.22
2023-05-19T17:37:58.017Z,101882.06
2023-05-19T17:40:25.502Z,101879.44
2023-05-19T17:42:52.748Z,101882.16
2023-05-19T17:45:20.073Z,101888.88
2023-05-19T17:47:47.334Z,101890.13
2023-05-19T17:50:14.514Z,101894.94
2023-05-19T17:52:42.041Z,101895.03
2023-05-19T17:55:11.350Z,101895.22
2023-05-19T17:57:43.403Z,101907.03
2023-05-19T18:00:12.000Z,101904.13
2023-05-19T18:02:40.346Z,101903.00
2023-05-19T18:05:09.009Z,101901.50
2023-05-19T18:07:41.757Z,101902.34
2023-05-19T18:10:10.610Z,101898.56
2023-05-19T18:12:37.880Z,101893.75
2023-05-19T18:15:06.210Z,101897.16
2023-05-19T18:17:33.586Z,101891.25
2023-05-19T18:20:00.948Z,101895.72
2023-05-19T18:22:28.077Z,101896.47
2023-05-19T18:24:55.342Z,101897.25
2023-05-19T18:27:22.450Z,101900.94
2023-05-19T18:29:49.526Z,101896.72
2023-05-19T18:32:17.704Z,101908.09
2023-05-19T18:34:44.881Z,101909.72
2023-05-19T18:37:12.036Z,101908.94
2023-05-19T18:39:39.191Z,101910.69
2023-05-19T18:42:06.552Z,101911.84
2023-05-19T18:44:33.877Z,101911.50
2023-05-19T18:47:01.258Z,101914.78
2023-05-19T18:49:28.352Z,101922.28
2023-05-19T18:51:55.463Z,101924.75
2023-05-19T18:54:22.687Z,101930.16
2023-05-19T18:56:49.788Z,101927.00
2023-05-19T18:59:16.957Z,101925.31
2023-05-19T19:01:45.168Z,101928.44
2023-05-19T19:04:14.599Z,101927.53
2023-05-19T19:06:42.065Z,101927.41
2023-05-19T19:09:11.054Z,101937.41
2023-05-19T19:11:38.521Z,101932.69
2023-05-19T19:14:05.651Z,101926.44
2023-05-19T19:16:33.177Z,101930.19
2023-05-19T19:19:03.532Z,101927.41
2023-05-19T19:21:31.506Z,101929.03
2023-05-19T19:23:58.778Z,101928.38
2023-05-19T19:26:29.473Z,101922.44
2023-05-19T19:28:57.330Z,101929.69
2023-05-19T19:31:28.776Z,101932.81
2023-05-19T19:33:58.906Z,101943.03
2023-05-19T19:36:26.714Z,101932.38
2023-05-19T19:38:53.867Z,101935.88
2023-05-19T19:41:21.201Z,101933.00
2023-05-19T19:43:48.320Z,101936.59
2023-05-19T19:46:15.488Z,101936.84
2023-05-19T19:48:42.718Z,101926.59
2023-05-19T19:51:09.836Z,101936.97
2023-05-19T19:53:36.987Z,101938.28
2023-05-19T19:56:05.138Z,101935.56
2023-05-19T19:58:32.330Z,101937.94
2023-05-19T20:01:03.839Z,101933.88
2023-05-19T20:03:31.692Z,101934.25
2023-05-19T20:06:01.325Z,101926.72
2023-05-19T20:08:28.427Z,101939.41
2023-05-19T20:10:55.738Z,101932.94
2023-05-19T20:13:23.227Z,101931.38
2023-05-19T20:15:51.329Z,101937.28
2023-05-19T20:18:18.799Z,101938.44
2023-05-19T20:20:50.850Z,101937.59
2023-05-19T20:23:18.025Z,101940.38
2023-05-19T20:26:02.327Z,101946.47
2023-05-19T20:28:32.780Z,101947.31
2023-05-19T20:30:59.905Z,101940.13
2023-05-19T20:33:27.018Z,101947.22
2023-05-19T20:35:54.166Z,101945.41
2023-05-19T20:38:21.505Z,101955.34
2023-05-19T20:40:48.793Z,101955.22
2023-05-19T20:43:16.358Z,101955.47
2023-05-19T20:45:44.512Z,101962.91
2023-05-19T20:48:11.926Z,101961.78
2023-05-19T20:50:39.900Z,101954.75
2023-05-19T20:53:07.458Z,101962.09
2023-05-19T20:55:36.166Z,101964.31
2023-05-19T20:58:03.527Z,101968.56
2023-05-19T21:00:30.928Z,101962.84
2023-05-19T21:02:58.273Z,101970.69
2023-05-19T21:05:25.638Z,101962.31
2023-05-19T21:07:52.840Z,101961.44
2023-05-19T21:10:20.039Z,101964.41
2023-05-19T21:12:47.426Z,101963.72
2023-05-19T21:15:14.879Z,101955.06
2023-05-19T21:17:42.232Z,101962.22
2023-05-19T21:20:10.480Z,101960.56
2023-05-19T21:22:37.660Z,101969.94
2023-05-19T21:25:06.042Z,101976.94
2023-05-19T21:27:35.665Z,101972.41
2023-05-19T21:30:06.452Z,101971.44
2023-05-19T21:32:33.744Z,101963.56
2023-05-19T21:35:01.379Z,101972.50
2023-05-19T21:37:28.452Z,101972.13
2023-05-19T21:39:58.422Z,101982.81
2023-05-19T21:42:29.238Z,101985.63
2023-05-19T21:44:56.625Z,101987.41
2023-05-19T21:47:23.737Z,101987.97
2023-05-19T21:49:51.058Z,101995.25
2023-05-19T21:52:19.141Z,101985.84
2023-05-19T21:54:46.422Z,101994.66
2023-05-19T21:57:13.637Z,101995.06
2023-05-19T21:59:40.824Z,101992.56
2023-05-19T22:02:08.160Z,101995.31
2023-05-19T22:04:35.941Z,101999.28
2023-05-19T22:07:03.911Z,101998.44
2023-05-19T22:09:38.986Z,101998.13
2023-05-19T22:12:07.858Z,102000.56
2023-05-19T22:14:35.964Z,101998.22
2023-05-19T22:17:15.044Z,102000.03
2023-05-19T22:19:49.809Z,102003.81
2023-05-19T22:22:20.450Z,102007.72
2023-05-19T22:24:58.958Z,101995.94
2023-05-19T22:27:26.364Z,101992.56
2023-05-19T22:29:58.040Z,102000.63
2023-05-19T22:32:26.470Z,101999.34
2023-05-19T22:34:54.127Z,101997.16
2023-05-19T22:37:24.170Z,101999.50
2023-05-19T22:39:51.671Z,101999.53
2023-05-19T22:42:18.963Z,102005.19
2023-05-19T22:44:46.312Z,102003.28
2023-05-19T22:47:20.066Z,101998.69
2023-05-19T22:49:51.153Z,102006.66
2023-05-19T22:52:18.656Z,102002.00
2023-05-19T22:54:46.421Z,102005.59
2023-05-19T22:57:13.630Z,102010.44
2023-05-19T22:59:41.363Z,102012.75
2023-05-19T23:02:08.798Z,102010.63
2023-05-19T23:04:36.787Z,102008.94
2023-05-19T23:07:04.380Z,102007.38
2023-05-19T23:09:34.965Z,102002.44
2023-05-19T23:12:02.193Z,102010.41
2023-05-19T23:14:29.481Z,102007.75
2023-05-19T23:16:57.074Z,101995.84
2023-05-19T23:19:24.494Z,101998.38
2023-05-19T23:21:52.122Z,101993.28
2023-05-19T23:24:19.833Z,101994.34
2023-05-19T23:26:47.093Z,101992.44
2023-05-19T23:29:17.732Z,101992.75
2023-05-19T23:31:45.465Z,102003.13
2023-05-19T23:34:13.200Z,102004.88
2023-05-19T23:36:40.910Z,101998.25
2023-05-19T23:39:08.292Z,101989.41
2023-05-19T23:41:36.805Z,101990.50
2023-05-19T23:44:07.000Z,101989.47
2023-05-19T23:46:35.399Z,101990.09
2023-05-19T23:49:02.773Z,101989.50
2023-05-19T23:51:30.012Z,101990.31
2023-05-19T23:53:57.518Z,101990.81
2023-05-19T23:56:24.869Z,101996.56
2023-05-19T23:58:52.149Z,101998.97
